createdAt,value
2018-05-26T00:00:40.232Z,61.10
2018-05-26T00:03:06.412Z,60.90
2018-05-26T00:05:32.602Z,61.00
2018-05-26T00:07:58.788Z,61.50
2018-05-26T00:10:24.955Z,61.40
2018-05-26T00:12:51.191Z,61.50
2018-05-26T00:15:18.121Z,62.00
2018-05-26T00:17:44.309Z,61.90
2018-05-26T00:20:10.516Z,61.90
2018-05-26T00:22:36.780Z,62.00
2018-05-26T00:25:02.984Z,62.20
2018-05-26T00:27:29.191Z,62.40
2018-05-26T00:29:55.370Z,62.30
2018-05-26T00:32:21.574Z,62.20
2018-05-26T00:34:47.797Z,62.00
2018-05-26T00:37:14.016Z,61.90
2018-05-26T00:39:40.958Z,62.00
2018-05-26T00:42:07.883Z,62.00
2018-05-26T00:44:34.083Z,62.00
2018-05-26T00:47:00.279Z,62.50
2018-05-26T00:49:26.488Z,61.70
2018-05-26T00:51:52.671Z,61.90
2018-05-26T00:54:18.887Z,62.00
2018-05-26T00:56:45.084Z,62.20
2018-05-26T00:59:11.276Z,62.20
2018-05-26T01:01:38.230Z,63.30
2018-05-26T01:04:05.444Z,63.30
2018-05-26T01:06:31.624Z,63.20
2018-05-26T01:08:57.809Z,63.70
2018-05-26T01:11:24.217Z,63.70
2018-05-26T01:13:50.479Z,64.20
2018-05-26T01:16:17.453Z,64.70
2018-05-26T01:18:44.474Z,64.70
2018-05-26T01:21:10.659Z,64.40
2018-05-26T01:23:36.845Z,64.70
2018-05-26T01:26:03.040Z,64.90
2018-05-26T01:28:29.223Z,64.90
2018-05-26T01:30:56.145Z,64.90
2018-05-26T01:33:22.547Z,64.90
2018-05-26T01:35:48.747Z,64.80
2018-05-26T01:38:14.951Z,65.00
2018-05-26T01:40:42.059Z,65.10
2018-05-26T01:43:08.265Z,65.10
2018-05-26T01:45:34.475Z,65.00
2018-05-26T01:48:08.388Z,65.30
2018-05-26T01:50:34.583Z,65.30
2018-05-26T01:53:00.775Z,65.30
2018-05-26T01:55:27.207Z,65.40
2018-05-26T01:57:53.417Z,65.60
2018-05-26T02:00:19.640Z,65.80
2018-05-26T02:02:45.892Z,65.90
2018-05-26T02:05:12.083Z,65.70
2018-05-26T02:07:38.284Z,65.80
2018-05-26T02:10:05.231Z,65.80
2018-05-26T02:12:32.160Z,66.70
2018-05-26T02:14:58.350Z,66.10
2018-05-26T02:17:24.571Z,66.20
2018-05-26T02:19:50.756Z,66.20
2018-05-26T02:22:17.698Z,66.50
2018-05-26T02:24:43.886Z,66.40
2018-05-26T02:27:16.966Z,66.20
2018-05-26T02:29:43.139Z,66.40
2018-05-26T02:32:09.329Z,66.20
2018-05-26T02:34:35.515Z,66.30
2018-05-26T02:37:02.436Z,66.40
2018-05-26T02:39:28.652Z,66.30
2018-05-26T02:41:54.862Z,66.20
2018-05-26T02:44:21.031Z,65.80
2018-05-26T02:46:47.263Z,65.70
2018-05-26T02:49:14.196Z,65.80
2018-05-26T02:51:40.372Z,65.70
2018-05-26T02:54:06.588Z,65.80
2018-05-26T02:56:32.802Z,65.90
2018-05-26T02:58:59.740Z,66.00
2018-05-26T03:01:26.732Z,66.50
2018-05-26T03:03:52.885Z,66.30
2018-05-26T03:06:25.223Z,66.30
2018-05-26T03:08:57.629Z,66.30
2018-05-26T03:14:34.140Z,66.70
2018-05-26T03:17:00.343Z,66.40
2018-05-26T03:19:26.538Z,66.60
2018-05-26T03:21:52.740Z,66.70
2018-05-26T03:24:19.664Z,67.30
2018-05-26T03:26:45.861Z,67.20
2018-05-26T03:29:12.050Z,67.40
2018-05-26T03:31:38.235Z,67.20
2018-05-26T03:34:04.416Z,67.20
2018-05-26T03:36:30.608Z,67.10
2018-05-26T03:38:56.807Z,67.20
2018-05-26T03:41:23.031Z,67.40
2018-05-26T03:43:49.202Z,67.20
2018-05-26T03:46:16.163Z,68.00
2018-05-26T03:48:43.116Z,68.50
2018-05-26T03:51:09.307Z,68.50
2018-05-26T03:53:36.259Z,68.80
2018-05-26T03:56:14.946Z,68.80
2018-05-26T03:58:53.591Z,68.90
2018-05-26T04:01:19.759Z,68.90
2018-05-26T04:03:46.017Z,68.90
2018-05-26T04:06:12.223Z,69.10
2018-05-26T04:08:38.412Z,69.30
2018-05-26T04:11:05.349Z,69.50
2018-05-26T04:13:31.532Z,69.40
2018-05-26T04:15:57.706Z,69.70
2018-05-26T04:18:24.643Z,70.00
2018-05-26T04:20:50.837Z,70.00
2018-05-26T04:23:17.039Z,69.90
2018-05-26T04:25:43.236Z,70.00
2018-05-26T04:28:10.201Z,70.10
2018-05-26T04:30:37.127Z,70.20
2018-05-26T04:33:04.060Z,70.30
2018-05-26T04:35:30.299Z,70.30
2018-05-26T04:37:56.480Z,70.20
2018-05-26T04:40:22.675Z,70.20
2018-05-26T04:42:49.038Z,70.40
2018-05-26T04:45:15.219Z,70.50
2018-05-26T04:47:42.155Z,70.60
2018-05-26T04:50:09.105Z,70.70
2018-05-26T04:52:36.015Z,70.70
2018-05-26T04:55:02.213Z,70.70
2018-05-26T04:57:28.400Z,70.70
2018-05-26T04:59:55.331Z,71.00
2018-05-26T05:02:21.515Z,70.80
2018-05-26T05:04:47.705Z,70.90
2018-05-26T05:07:14.639Z,71.10
2018-05-26T05:09:40.857Z,70.90
2018-05-26T05:12:07.063Z,70.90
2018-05-26T05:14:33.310Z,71.00
2018-05-26T05:16:59.487Z,71.00
2018-05-26T05:19:25.663Z,70.90
2018-05-26T05:21:51.836Z,70.90
2018-05-26T05:24:18.077Z,71.00
2018-05-26T05:26:44.460Z,71.00
2018-05-26T05:29:10.628Z,71.10
2018-05-26T05:31:36.827Z,71.10
2018-05-26T05:34:03.768Z,71.50
2018-05-26T05:36:29.954Z,71.40
2018-05-26T05:38:56.136Z,72.50
2018-05-26T05:41:23.081Z,74.30
2018-05-26T05:43:50.007Z,74.70
2018-05-26T05:46:16.191Z,74.70
2018-05-26T05:48:42.642Z,74.60
2018-05-26T05:51:08.837Z,74.30
2018-05-26T05:53:35.015Z,72.80
2018-05-26T05:56:01.215Z,71.80
2018-05-26T05:58:27.425Z,71.30
2018-05-26T06:00:53.672Z,70.50
2018-05-26T06:03:19.896Z,69.50
2018-05-26T06:05:46.183Z,68.80
2018-05-26T06:08:15.865Z,67.90
2018-05-26T06:10:42.340Z,67.30
2018-05-26T06:13:08.506Z,66.10
2018-05-26T06:15:34.739Z,65.90
2018-05-26T06:18:01.959Z,64.40
2018-05-26T06:20:28.196Z,64.30
2018-05-26T06:22:54.411Z,64.00
2018-05-26T06:25:20.617Z,63.90
2018-05-26T06:27:46.851Z,63.20
2018-05-26T06:30:13.085Z,62.60
2018-05-26T06:32:39.311Z,61.60
2018-05-26T06:35:05.507Z,61.30
2018-05-26T06:37:32.439Z,60.70
2018-05-26T06:39:59.387Z,60.60
2018-05-26T06:42:26.311Z,60.90
2018-05-26T06:44:53.999Z,59.60
2018-05-26T06:47:20.277Z,59.40
2018-05-26T06:49:46.478Z,58.80
2018-05-26T06:52:12.669Z,58.50
2018-05-26T06:54:38.868Z,57.80
2018-05-26T06:57:05.064Z,57.60
2018-05-26T06:59:31.280Z,57.40
2018-05-26T07:01:58.217Z,56.50
2018-05-26T07:04:25.258Z,55.90
2018-05-26T07:06:51.495Z,55.70
2018-05-26T07:09:17.679Z,55.50
2018-05-26T07:11:43.924Z,54.90
2018-05-26T07:14:10.188Z,54.00
2018-05-26T07:16:36.388Z,53.50
2018-05-26T07:19:03.323Z,52.60
2018-05-26T07:21:30.281Z,52.40
2018-05-26T07:23:57.203Z,53.10
2018-05-26T07:26:23.429Z,52.40
2018-05-26T07:28:49.604Z,53.30
2018-05-26T07:31:15.799Z,52.80
2018-05-26T07:33:42.069Z,52.90
2018-05-26T07:36:08.976Z,52.30
2018-05-26T07:38:35.201Z,52.20
2018-05-26T07:41:01.395Z,51.80
2018-05-26T07:43:27.588Z,52.00
2018-05-26T07:45:53.770Z,51.10
2018-05-26T07:48:20.064Z,50.50
2018-05-26T07:50:46.306Z,51.10
2018-05-26T07:53:12.533Z,51.20
2018-05-26T07:55:39.569Z,50.90
2018-05-26T07:58:05.764Z,50.90
2018-05-26T08:00:32.676Z,51.40
2018-05-26T08:02:58.882Z,50.60
2018-05-26T08:05:25.089Z,50.60
2018-05-26T08:07:51.321Z,51.40
2018-05-26T08:10:17.522Z,51.80
2018-05-26T08:12:44.483Z,51.40
2018-05-26T08:15:10.668Z,51.30
2018-05-26T08:17:37.607Z,52.00
2018-05-26T08:20:03.877Z,51.90
2018-05-26T08:22:30.107Z,51.00
2018-05-26T08:24:56.342Z,51.00
2018-05-26T08:27:22.630Z,51.00
2018-05-26T08:29:48.838Z,50.50
2018-05-26T08:32:15.062Z,50.70
2018-05-26T08:34:41.280Z,50.50
2018-05-26T08:37:07.482Z,50.30
2018-05-26T08:39:33.694Z,50.30
2018-05-26T08:42:00.603Z,49.60
2018-05-26T08:44:26.787Z,49.50
2018-05-26T08:46:52.976Z,49.60
2018-05-26T08:49:19.946Z,50.30
2018-05-26T08:51:46.127Z,50.10
2018-05-26T08:54:12.313Z,50.30
2018-05-26T08:56:38.556Z,50.40
2018-05-26T08:59:04.834Z,50.30
2018-05-26T09:01:31.003Z,50.00
2018-05-26T09:03:57.208Z,49.90
2018-05-26T09:06:24.208Z,48.80
2018-05-26T09:08:50.351Z,48.70
2018-05-26T09:11:16.686Z,48.50
2018-05-26T09:13:43.028Z,48.90
2018-05-26T09:16:09.967Z,48.30
2018-05-26T09:18:36.185Z,48.90
2018-05-26T09:21:03.294Z,48.40
2018-05-26T09:23:29.468Z,47.70
2018-05-26T09:25:55.853Z,47.90
2018-05-26T09:28:22.046Z,47.50
2018-05-26T09:30:48.977Z,47.10
2018-05-26T09:33:15.919Z,47.60
2018-05-26T09:35:42.087Z,47.50
2018-05-26T09:38:08.275Z,47.20
2018-05-26T09:40:34.465Z,46.70
2018-05-26T09:43:00.651Z,45.90
2018-05-26T09:45:26.851Z,46.50
2018-05-26T09:47:53.969Z,46.70
2018-05-26T09:50:20.152Z,46.60
2018-05-26T09:52:47.079Z,46.30
2018-05-26T09:55:13.276Z,46.20
2018-05-26T09:57:39.458Z,46.30
2018-05-26T10:00:05.678Z,46.60
2018-05-26T10:02:31.933Z,46.30
2018-05-26T10:04:58.167Z,46.20
2018-05-26T10:07:25.109Z,45.70
2018-05-26T10:09:51.324Z,45.70
2018-05-26T10:12:17.517Z,45.90
2018-05-26T10:14:43.680Z,45.40
2018-05-26T10:17:11.359Z,45.40
2018-05-26T10:19:38.259Z,45.20
2018-05-26T10:22:04.454Z,45.00
2018-05-26T10:24:30.675Z,45.40
2018-05-26T10:26:56.856Z,44.40
2018-05-26T10:29:23.801Z,44.50
2018-05-26T10:31:50.188Z,44.40
2018-05-26T10:34:16.383Z,44.40
2018-05-26T10:36:42.576Z,44.30
2018-05-26T10:39:08.782Z,43.20
2018-05-26T10:41:34.981Z,43.30
2018-05-26T10:44:01.196Z,43.20
2018-05-26T10:46:27.660Z,42.30
2018-05-26T10:48:54.638Z,41.70
2018-05-26T10:51:20.843Z,41.90
2018-05-26T10:53:47.035Z,41.40
2018-05-26T10:56:13.920Z,41.60
2018-05-26T10:58:40.048Z,41.50
2018-05-26T11:01:06.428Z,41.70
2018-05-26T11:03:33.304Z,40.80
2018-05-26T11:06:00.195Z,40.60
2018-05-26T11:08:27.104Z,41.00
2018-05-26T11:10:54.003Z,41.50
2018-05-26T11:13:20.145Z,41.30
2018-05-26T11:15:46.303Z,41.40
2018-05-26T11:18:13.197Z,41.20
2018-05-26T11:20:46.368Z,41.10
2018-05-26T11:23:12.508Z,41.00
2018-05-26T11:25:38.644Z,40.70
2018-05-26T11:28:04.799Z,41.00
2018-05-26T11:30:30.934Z,41.50
2018-05-26T11:32:57.819Z,41.30
2018-05-26T11:35:23.971Z,41.00
2018-05-26T11:37:50.106Z,40.50
2018-05-26T11:40:16.270Z,40.10
2018-05-26T11:42:43.156Z,40.10
2018-05-26T11:45:09.312Z,40.00
2018-05-26T11:47:36.192Z,39.40
2018-05-26T11:50:03.098Z,39.10
2018-05-26T11:52:30.719Z,38.70
2018-05-26T11:54:56.857Z,38.70
2018-05-26T11:57:22.996Z,38.00
2018-05-26T11:59:49.139Z,38.40
2018-05-26T12:02:15.282Z,38.50
2018-05-26T12:04:42.168Z,38.30
2018-05-26T12:07:08.316Z,38.20
2018-05-26T12:09:34.464Z,37.80
2018-05-26T12:12:00.871Z,38.10
2018-05-26T12:14:27.031Z,37.80
2018-05-26T12:16:53.944Z,37.70
2018-05-26T12:19:20.116Z,37.40
2018-05-26T12:21:46.291Z,37.80
2018-05-26T12:24:12.452Z,36.70
2018-05-26T12:26:39.355Z,37.10
2018-05-26T12:29:05.506Z,37.00
2018-05-26T12:31:32.392Z,37.60
2018-05-26T12:33:58.563Z,37.30
2018-05-26T12:36:24.691Z,36.60
2018-05-26T12:38:50.837Z,36.30
2018-05-26T12:41:16.976Z,36.90
2018-05-26T12:43:43.886Z,36.00
2018-05-26T12:46:10.036Z,35.90
2018-05-26T12:48:42.589Z,36.20
2018-05-26T12:51:09.483Z,36.30
2018-05-26T12:53:35.648Z,35.50
2018-05-26T12:56:01.796Z,35.30
2018-05-26T12:58:28.675Z,35.60
2018-05-26T13:00:54.835Z,35.50
2018-05-26T13:03:20.991Z,35.10
2018-05-26T13:05:47.888Z,35.50
2018-05-26T13:08:14.039Z,35.40
2018-05-26T13:10:40.192Z,35.20
2018-05-26T13:13:07.081Z,35.90
2018-05-26T13:15:33.250Z,35.80
2018-05-26T13:18:00.155Z,34.70
2018-05-26T13:20:26.295Z,34.60
2018-05-26T13:22:52.431Z,34.60
2018-05-26T13:25:18.727Z,34.90
2018-05-26T13:27:44.865Z,34.70
2018-05-26T13:30:11.084Z,34.70
2018-05-26T13:32:37.325Z,34.50
2018-05-26T13:35:03.487Z,34.80
2018-05-26T13:37:29.676Z,35.00
2018-05-26T13:39:56.064Z,34.60
2018-05-26T13:42:22.265Z,34.50
2018-05-26T13:44:48.504Z,35.00
2018-05-26T13:47:14.878Z,34.60
2018-05-26T13:49:41.136Z,34.30
2018-05-26T13:52:08.063Z,34.70
2018-05-26T13:54:35.782Z,34.50
2018-05-26T13:57:09.636Z,34.20
2018-05-26T13:59:35.819Z,34.10
2018-05-26T14:02:02.036Z,35.30
2018-05-26T14:04:28.237Z,34.30
2018-05-26T14:06:55.159Z,34.60
2018-05-26T14:09:21.350Z,34.60
2018-05-26T14:11:47.556Z,34.10
2018-05-26T14:14:14.008Z,34.20
2018-05-26T14:16:40.216Z,34.40
2018-05-26T14:19:06.387Z,34.40
2018-05-26T14:21:32.592Z,34.20
2018-05-26T14:23:59.569Z,34.40
2018-05-26T14:26:25.785Z,34.20
2018-05-26T14:28:52.011Z,34.20
2018-05-26T14:31:18.191Z,34.00
2018-05-26T14:33:45.099Z,34.20
2018-05-26T14:36:11.302Z,34.00
2018-05-26T14:38:37.514Z,34.30
2018-05-26T14:41:03.710Z,34.10
2018-05-26T14:43:29.883Z,34.10
2018-05-26T14:45:56.071Z,33.80
2018-05-26T14:48:22.997Z,33.60
2018-05-26T14:50:49.244Z,33.50
2018-05-26T14:53:16.159Z,33.80
2018-05-26T14:55:42.356Z,33.70
2018-05-26T14:58:08.537Z,33.80
2018-05-26T15:00:35.471Z,33.60
2018-05-26T15:03:01.656Z,33.60
2018-05-26T15:05:27.860Z,33.60
2018-05-26T15:07:54.039Z,32.50
2018-05-26T15:10:20.198Z,32.10
2018-05-26T15:12:47.231Z,32.40
2018-05-26T15:15:14.048Z,32.40
2018-05-26T15:17:40.223Z,32.30
2018-05-26T15:20:06.420Z,32.30
2018-05-26T15:22:32.590Z,32.40
2018-05-26T15:24:58.790Z,32.30
2018-05-26T15:27:25.719Z,32.50
2018-05-26T15:29:51.875Z,31.80
2018-05-26T15:32:18.059Z,31.60
2018-05-26T15:34:44.269Z,31.80
2018-05-26T15:37:10.451Z,31.10
2018-05-26T15:39:37.379Z,31.10
2018-05-26T15:42:04.299Z,31.60
2018-05-26T15:44:30.485Z,31.60
2018-05-26T15:46:56.661Z,31.40
2018-05-26T15:49:22.849Z,31.60
2018-05-26T15:51:49.024Z,31.90
2018-05-26T15:54:15.205Z,31.50
2018-05-26T15:56:41.403Z,31.50
2018-05-26T15:59:08.358Z,31.60
2018-05-26T16:01:34.505Z,31.50
2018-05-26T16:04:00.955Z,31.70
2018-05-26T16:06:27.171Z,31.10
2018-05-26T16:08:53.359Z,31.10
2018-05-26T16:11:19.535Z,31.20
2018-05-26T16:13:45.712Z,31.00
2018-05-26T16:16:11.884Z,31.40
2018-05-26T16:18:38.128Z,31.90
2018-05-26T16:21:04.307Z,31.70
2018-05-26T16:23:31.231Z,32.00
2018-05-26T16:25:57.428Z,32.00
2018-05-26T16:28:23.616Z,32.00
2018-05-26T16:30:49.882Z,32.50
2018-05-26T16:33:16.067Z,32.50
2018-05-26T16:35:43.145Z,32.40
2018-05-26T16:38:09.323Z,32.30
2018-05-26T16:40:35.708Z,32.10
2018-05-26T16:43:01.876Z,32.20
2018-05-26T16:45:28.093Z,32.20
2018-05-26T16:47:54.279Z,32.30
2018-05-26T16:50:20.514Z,32.60
2018-05-26T16:52:46.692Z,33.30
2018-05-26T16:55:12.874Z,32.70
2018-05-26T16:57:39.047Z,32.90
2018-05-26T17:00:05.979Z,33.70
2018-05-26T17:02:32.162Z,33.10
2018-05-26T17:04:58.339Z,33.40
2018-05-26T17:07:24.514Z,33.70
2018-05-26T17:09:50.731Z,34.10
2018-05-26T17:12:16.909Z,34.20
2018-05-26T17:14:43.078Z,34.20
2018-05-26T17:17:09.276Z,34.20
2018-05-26T17:19:36.223Z,35.00
2018-05-26T17:22:02.411Z,34.30
2018-05-26T17:24:28.597Z,34.20
2018-05-26T17:26:54.832Z,34.20
2018-05-26T17:29:21.013Z,34.30
2018-05-26T17:31:47.202Z,34.20
2018-05-26T17:34:13.743Z,34.20
2018-05-26T17:36:41.202Z,34.20
2018-05-26T17:39:07.487Z,34.20
2018-05-26T17:41:33.703Z,34.30
2018-05-26T17:43:59.875Z,34.30
2018-05-26T17:46:26.066Z,34.60
2018-05-26T17:48:52.972Z,34.70
2018-05-26T17:51:19.168Z,34.60
2018-05-26T17:53:45.359Z,35.00
2018-05-26T17:56:11.539Z,34.90
2018-05-26T17:58:37.715Z,35.10
2018-05-26T18:01:04.658Z,34.60
2018-05-26T18:03:31.570Z,35.00
2018-05-26T18:05:57.758Z,34.40
2018-05-26T18:08:23.998Z,34.50
2018-05-26T18:10:50.915Z,34.30
2018-05-26T18:13:17.835Z,34.40
2018-05-26T18:15:44.016Z,34.30
2018-05-26T18:18:10.200Z,34.40
2018-05-26T18:20:36.369Z,34.50
2018-05-26T18:23:02.602Z,34.50
2018-05-26T18:25:28.786Z,34.70
2018-05-26T18:27:55.698Z,34.90
2018-05-26T18:30:21.903Z,34.80
2018-05-26T18:32:48.146Z,34.70
2018-05-26T18:35:14.280Z,34.70
2018-05-26T18:37:41.944Z,34.60
2018-05-26T18:40:08.283Z,34.50
2018-05-26T18:42:34.457Z,34.40
2018-05-26T18:45:00.627Z,34.50
2018-05-26T18:47:26.831Z,34.60
2018-05-26T18:49:53.067Z,35.10
2018-05-26T18:52:19.268Z,34.80
2018-05-26T18:54:45.479Z,34.50
2018-05-26T18:57:11.711Z,34.40
2018-05-26T18:59:38.630Z,34.70
2018-05-26T19:02:04.835Z,34.50
2018-05-26T19:04:31.018Z,35.20
2018-05-26T19:06:57.223Z,35.00
2018-05-26T19:09:24.423Z,35.00
2018-05-26T19:11:50.583Z,34.80
2018-05-26T19:14:16.739Z,35.30
2018-05-26T19:16:43.660Z,35.30
2018-05-26T19:19:09.869Z,35.20
2018-05-26T19:21:36.045Z,35.30
2018-05-26T19:24:02.971Z,35.50
2018-05-26T19:26:29.177Z,35.50
2018-05-26T19:28:55.369Z,35.70
2018-05-26T19:31:21.578Z,35.90
2018-05-26T19:33:48.491Z,36.10
2018-05-26T19:36:14.760Z,36.10
2018-05-26T19:38:41.683Z,36.50
2018-05-26T19:41:08.592Z,37.10
2018-05-26T19:43:34.782Z,36.50
2018-05-26T19:46:00.959Z,36.90
2018-05-26T19:48:27.135Z,36.80
2018-05-26T19:50:54.227Z,37.60
2018-05-26T19:53:20.408Z,37.50
2018-05-26T19:55:47.322Z,38.00
2018-05-26T19:58:13.519Z,38.00
2018-05-26T20:00:39.718Z,38.10
2018-05-26T20:03:06.647Z,38.50
2018-05-26T20:05:33.835Z,38.50
2018-05-26T20:08:00.010Z,38.50
2018-05-26T20:10:26.196Z,38.60
2018-05-26T20:12:52.655Z,39.10
2018-05-26T20:15:18.853Z,39.00
2018-05-26T20:17:45.019Z,39.10
2018-05-26T20:20:11.217Z,39.30
2018-05-26T20:22:44.268Z,39.50
2018-05-26T20:25:11.207Z,39.50
2018-05-26T20:27:37.400Z,39.50
2018-05-26T20:30:03.580Z,39.80
2018-05-26T20:32:37.512Z,39.90
2018-05-26T20:35:03.700Z,39.90
2018-05-26T20:37:30.619Z,40.10
2018-05-26T20:39:56.815Z,40.00
2018-05-26T20:42:23.021Z,40.80
2018-05-26T20:44:49.226Z,40.30
2018-05-26T20:47:15.456Z,40.20
2018-05-26T20:49:41.622Z,40.30
2018-05-26T20:52:07.803Z,41.20
2018-05-26T20:54:34.008Z,40.90
2018-05-26T20:57:00.175Z,41.00
2018-05-26T20:59:28.504Z,41.30
2018-05-26T21:01:54.718Z,41.20
2018-05-26T21:04:20.942Z,41.10
2018-05-26T21:06:47.200Z,41.20
2018-05-26T21:09:13.387Z,41.20
2018-05-26T21:11:39.559Z,41.30
2018-05-26T21:14:05.737Z,41.50
2018-05-26T21:16:31.935Z,41.70
2018-05-26T21:18:58.180Z,41.80
2018-05-26T21:21:24.364Z,41.70
2018-05-26T21:23:50.550Z,42.10
2018-05-26T21:26:17.464Z,42.40
2018-05-26T21:28:43.658Z,42.20
2018-05-26T21:31:09.859Z,42.20
2018-05-26T21:33:36.063Z,42.40
2018-05-26T21:36:02.261Z,42.40
2018-05-26T21:38:28.475Z,42.50
2018-05-26T21:40:54.656Z,42.60
2018-05-26T21:43:20.853Z,43.00
2018-05-26T21:45:47.569Z,42.90
2018-05-26T21:48:13.781Z,43.00
2018-05-26T21:50:40.002Z,43.20
2018-05-26T21:53:06.234Z,43.40
2018-05-26T21:55:32.418Z,43.40
2018-05-26T21:57:58.659Z,43.30
2018-05-26T22:00:24.838Z,43.50
2018-05-26T22:02:51.058Z,43.50
2018-05-26T22:05:17.239Z,43.50
2018-05-26T22:07:44.193Z,44.30
2018-05-26T22:10:11.124Z,44.50
2018-05-26T22:12:37.354Z,43.70
2018-05-26T22:15:03.742Z,44.10
2018-05-26T22:17:29.926Z,44.40
2018-05-26T22:19:56.855Z,46.80
2018-05-26T22:22:23.050Z,43.60
2018-05-26T22:24:49.202Z,43.70
2018-05-26T22:27:15.383Z,43.50
2018-05-26T22:29:41.599Z,43.50
2018-05-26T22:32:08.507Z,44.10
2018-05-26T22:34:34.689Z,43.60
2018-05-26T22:37:00.866Z,43.60
2018-05-26T22:39:27.824Z,44.10
2018-05-26T22:41:54.754Z,44.00
2018-05-26T22:44:22.412Z,44.00
2018-05-26T22:46:48.628Z,43.50
2018-05-26T22:49:14.860Z,43.50
2018-05-26T22:51:41.043Z,43.60
2018-05-26T22:54:07.241Z,43.40
2018-05-26T22:56:34.436Z,43.60
2018-05-26T22:59:00.664Z,43.60
2018-05-26T23:01:26.847Z,43.50
2018-05-26T23:03:53.795Z,43.60
2018-05-26T23:06:20.745Z,43.60
2018-05-26T23:08:47.683Z,43.70
2018-05-26T23:11:14.631Z,43.70
2018-05-26T23:13:41.566Z,43.60
2018-05-26T23:16:07.852Z,43.60
2018-05-26T23:18:34.067Z,43.70
2018-05-26T23:21:00.268Z,43.70
2018-05-26T23:23:26.484Z,43.80
2018-05-26T23:25:53.598Z,44.30
2018-05-26T23:28:19.780Z,43.80
2018-05-26T23:30:46.005Z,44.00
2018-05-26T23:33:12.369Z,43.90
2018-05-26T23:35:38.563Z,43.90
2018-05-26T23:38:05.516Z,44.30
2018-05-26T23:40:31.790Z,44.20
2018-05-26T23:42:58.045Z,44.10
2018-05-26T23:45:24.977Z,44.20
2018-05-26T23:47:51.160Z,44.10
2018-05-26T23:50:17.378Z,44.10
2018-05-26T23:52:43.559Z,44.40
2018-05-26T23:55:09.742Z,44.20
2018-05-26T23:57:36.002Z,44.30
